Weather at Cross-B Airport

Public forecast

Using degrees Fahrenheit for public forecast. Weather courtesy of forecast.io.

Closest aviation weather report (METAR) to Cross-B Airport

Closest report is Stinson Municipal Airport, 5.4 nm (9.9 km) W.

2024/07/22 22:53 (retrieved 16 minutes ago)

KSSF 222253Z 11008G17KT 10SM -RA SCT050 BKN065 33/22 A2988 RMK AO2 WSHFT 2151 LTG DSNT NW SLP106 P0000 T03280222

Closest aviation forecast (TAF) to Cross-B Airport

Closest forecast is Stinson Municipal Airport, 5.4 nm (9.9 km) W.

2024/07/22 20:36 Ammendment (retrieved 3 hours ago)

TAF AMD KSSF 221933Z 2220/2318 16007KT P6SM VCTS SCT050CB BKN100 TEMPO 2221/2301 VRB15G25KT 2SM TSRA BKN020CB FM230400 VRB04KT P6SM VCSH SCT025 BKN060 FM231000 VRB04KT P6SM VCSH BKN015